Time;durP1;ratioP1;P1;durP2;ratioP2;P2;SDS_P1;SDS_P2;PMS_P1;PMS_P2;Temp;Humidity;BMP_temperature;BMP_pressure;BME280_temperature;BME280_humidity;BME280_pressure;Samples;Min_cycle;Max_cycle;Signal;HPM_P1;HPM_P2
2022/08/07 00:01:03;;;;;;;;;;;22.20;86.40;;;;;;4864243;29;20377;-81
2022/08/07 00:03:50;;;;;;;;;;;22.20;86.10;;;;;;4852024;29;20019;-80
2022/08/07 00:06:17;;;;;;;;;;;22.10;85.60;;;;;;4867909;29;19930;-81
2022/08/07 00:08:54;;;;;;;;;;;22.20;86.40;;;;;;4854706;29;20007;-81
2022/08/07 00:11:21;;;;;;;;;;;22.20;85.70;;;;;;4847210;29;19972;-81
2022/08/07 00:13:58;;;;;;;;;;;22.20;85.80;;;;;;4848955;29;20022;-81
2022/08/07 00:16:25;;;;;;;;;;;22.20;86.10;;;;;;4841964;29;19960;-82
2022/08/07 00:18:53;;;;;;;;;;;22.20;85.80;;;;;;4874105;29;19924;-81
2022/08/07 00:21:21;;;;;;;;;;;22.10;85.40;;;;;;4855450;29;19952;-82
2022/08/07 00:24:09;;;;;;;;;;;22.10;85.30;;;;;;4854432;29;20019;-81
2022/08/07 00:26:35;;;;;;;;;;;22.10;84.90;;;;;;4850444;29;19954;-81
2022/08/07 00:29:25;;;;;;;;;;;22.00;84.60;;;;;;4863582;29;20282;-83
2022/08/07 00:31:58;;;;;;;;;;;22.10;84.30;;;;;;4857518;29;19967;-81
2022/08/07 00:34:25;;;;;;;;;;;22.00;84.40;;;;;;4851020;29;19928;-83
2022/08/07 00:36:55;;;;;;;;;;;22.00;85.10;;;;;;4852036;29;19924;-81
2022/08/07 00:39:21;;;;;;;;;;;21.90;85.30;;;;;;4863471;29;19931;-82
2022/08/07 00:41:56;;;;;;;;;;;21.90;86.70;;;;;;4856645;29;19935;-83
2022/08/07 00:44:30;;;;;;;;;;;21.90;87.80;;;;;;4861904;29;19967;-81
2022/08/07 00:46:59;;;;;;;;;;;21.80;88.30;;;;;;4845006;29;19931;-81
2022/08/07 00:49:27;;;;;;;;;;;21.80;89.50;;;;;;4854166;29;19988;-81
2022/08/07 00:52:13;;;;;;;;;;;21.80;88.90;;;;;;4848175;29;19975;-83
2022/08/07 00:54:45;;;;;;;;;;;21.80;89.90;;;;;;4851421;29;20399;-82
2022/08/07 00:57:22;;;;;;;;;;;21.70;90.10;;;;;;4854656;29;19928;-83
2022/08/07 00:59:52;;;;;;;;;;;21.70;90.00;;;;;;4871683;29;19952;-81
2022/08/07 01:02:19;;;;;;;;;;;21.80;90.10;;;;;;4852144;29;19924;-81
2022/08/07 01:04:56;;;;;;;;;;;21.80;90.10;;;;;;4855653;29;19925;-84
2022/08/07 01:07:25;;;;;;;;;;;21.70;90.00;;;;;;4854018;29;19984;-82
2022/08/07 01:09:54;;;;;;;;;;;21.70;90.00;;;;;;4858516;29;19924;-81
2022/08/07 01:12:36;;;;;;;;;;;21.70;90.00;;;;;;4844746;29;19971;-83
2022/08/07 01:15:05;;;;;;;;;;;21.70;89.40;;;;;;4863213;29;19924;-81
2022/08/07 01:17:32;;;;;;;;;;;21.70;89.30;;;;;;4864374;29;19932;-81
2022/08/07 01:20:10;;;;;;;;;;;21.70;89.80;;;;;;4848134;29;20301;-82
2022/08/07 01:22:43;;;;;;;;;;;21.60;90.00;;;;;;4841982;29;19925;-82
2022/08/07 01:25:30;;;;;;;;;;;21.50;90.00;;;;;;4852823;29;20411;-82
2022/08/07 01:28:17;;;;;;;;;;;21.60;89.90;;;;;;4849748;29;19997;-82
2022/08/07 01:30:45;;;;;;;;;;;21.60;89.70;;;;;;4858311;29;19959;-81
2022/08/07 01:33:12;;;;;;;;;;;21.60;88.80;;;;;;4849251;29;20019;-81
2022/08/07 01:35:39;;;;;;;;;;;21.60;88.50;;;;;;4852818;29;19915;-83
2022/08/07 01:38:26;;;;;;;;;;;21.70;88.30;;;;;;4850145;29;19974;-81
2022/08/07 01:40:56;;;;;;;;;;;21.70;88.30;;;;;;4862950;29;19934;-81
2022/08/07 01:43:24;;;;;;;;;;;21.80;88.90;;;;;;4857923;29;19924;-82
2022/08/07 01:45:52;;;;;;;;;;;21.80;89.80;;;;;;4859733;29;20014;-82
2022/08/07 01:48:20;;;;;;;;;;;21.80;90.20;;;;;;4849427;29;19935;-81
2022/08/07 01:50:58;;;;;;;;;;;21.70;90.10;;;;;;4853511;29;20472;-81
2022/08/07 01:53:46;;;;;;;;;;;21.70;89.40;;;;;;4861462;29;20015;-81
2022/08/07 01:56:46;;;;;;;;;;;21.80;89.90;;;;;;4859955;29;19971;-83
2022/08/07 01:59:23;;;;;;;;;;;21.70;90.20;;;;;;4846042;29;19928;-83
2022/08/07 02:02:01;;;;;;;;;;;21.70;90.20;;;;;;4848449;29;20459;-84
2022/08/07 02:04:37;;;;;;;;;;;21.70;90.00;;;;;;4857949;29;19932;-81
2022/08/07 02:07:22;;;;;;;;;;;21.70;90.30;;;;;;4862297;29;20298;-80
2022/08/07 02:10:03;;;;;;;;;;;21.60;90.40;;;;;;4851127;29;19963;-81
2022/08/07 02:12:31;;;;;;;;;;;21.60;90.60;;;;;;4857179;29;19909;-82
2022/08/07 02:14:59;;;;;;;;;;;21.60;90.40;;;;;;4853447;29;19924;-83
2022/08/07 02:17:26;;;;;;;;;;;21.60;90.10;;;;;;4860592;29;19924;-82
2022/08/07 02:20:00;;;;;;;;;;;21.60;90.00;;;;;;4847270;29;19991;-81
2022/08/07 02:22:37;;;;;;;;;;;21.70;90.30;;;;;;4860205;29;19931;-81
2022/08/07 02:25:10;;;;;;;;;;;21.80;89.50;;;;;;4848692;29;20421;-82
2022/08/07 02:27:44;;;;;;;;;;;21.80;88.90;;;;;;4859889;29;19956;-82
2022/08/07 02:30:18;;;;;;;;;;;21.90;88.90;;;;;;4850716;29;19929;-82
2022/08/07 02:32:46;;;;;;;;;;;21.90;88.60;;;;;;4857576;29;20358;-81
2022/08/07 02:35:34;;;;;;;;;;;21.90;88.70;;;;;;4849986;29;19938;-83
2022/08/07 02:38:24;;;;;;;;;;;21.90;88.70;;;;;;4846338;29;19939;-82
2022/08/07 02:40:58;;;;;;;;;;;22.00;88.60;;;;;;4844603;29;20015;-81
2022/08/07 02:43:26;;;;;;;;;;;22.00;88.50;;;;;;4856135;29;19925;-81
2022/08/07 02:45:55;;;;;;;;;;;22.00;88.40;;;;;;4865539;29;19934;-81
2022/08/07 02:48:28;;;;;;;;;;;22.10;88.50;;;;;;4871779;29;19928;-82
2022/08/07 02:50:56;;;;;;;;;;;22.10;88.50;;;;;;4851768;29;19976;-83
2022/08/07 02:53:30;;;;;;;;;;;22.10;88.50;;;;;;4855865;29;19932;-83
2022/08/07 02:56:05;;;;;;;;;;;22.10;88.40;;;;;;4848443;29;19928;-83
2022/08/07 02:58:46;;;;;;;;;;;22.20;88.40;;;;;;4850904;29;19963;-81
2022/08/07 03:01:14;;;;;;;;;;;22.20;88.10;;;;;;4837179;29;19932;-81
2022/08/07 03:04:00;;;;;;;;;;;22.20;87.90;;;;;;4842919;29;20015;-81
2022/08/07 03:06:33;;;;;;;;;;;22.20;87.60;;;;;;4847150;29;20002;-82
2022/08/07 03:09:01;;;;;;;;;;;22.10;87.70;;;;;;4854189;29;19924;-84
2022/08/07 03:11:28;;;;;;;;;;;22.10;87.70;;;;;;4867565;29;20414;-82
2022/08/07 03:14:04;;;;;;;;;;;22.10;88.10;;;;;;4846522;29;20441;-83
2022/08/07 03:16:32;;;;;;;;;;;22.00;88.20;;;;;;4865854;29;19956;-83
2022/08/07 03:19:00;;;;;;;;;;;22.00;88.30;;;;;;4857382;29;19932;-82
2022/08/07 03:21:27;;;;;;;;;;;22.00;88.30;;;;;;4849311;29;19964;-81
2022/08/07 03:23:59;;;;;;;;;;;21.90;88.10;;;;;;4855387;29;19963;-83
2022/08/07 03:26:49;;;;;;;;;;;21.90;88.10;;;;;;4860769;29;19939;-81
2022/08/07 03:29:28;;;;;;;;;;;21.90;88.00;;;;;;4866724;29;20130;-83
2022/08/07 03:31:55;;;;;;;;;;;21.90;87.90;;;;;;4864154;29;20400;-83
2022/08/07 03:34:22;;;;;;;;;;;21.90;88.00;;;;;;4872237;29;19936;-82
2022/08/07 03:36:53;;;;;;;;;;;21.80;87.80;;;;;;4869691;29;20400;-82
2022/08/07 03:39:24;;;;;;;;;;;21.80;88.00;;;;;;4875780;29;19928;-81
2022/08/07 03:42:11;;;;;;;;;;;21.80;87.50;;;;;;4863186;29;19934;-81
2022/08/07 03:44:38;;;;;;;;;;;21.80;88.10;;;;;;4855814;29;19912;-83
2022/08/07 03:47:05;;;;;;;;;;;21.70;86.90;;;;;;4862440;29;19981;-81
2022/08/07 03:49:37;;;;;;;;;;;21.80;86.90;;;;;;4859081;29;19935;-83
2022/08/07 03:52:04;;;;;;;;;;;21.70;87.00;;;;;;4853310;29;19984;-81
2022/08/07 03:54:31;;;;;;;;;;;21.80;87.30;;;;;;4862759;29;20346;-82
2022/08/07 03:57:19;;;;;;;;;;;21.70;87.70;;;;;;4861787;29;20526;-83
2022/08/07 04:00:07;;;;;;;;;;;21.70;88.20;;;;;;4848175;29;20019;-82
2022/08/07 04:02:36;;;;;;;;;;;21.70;88.30;;;;;;4848385;29;19928;-84
2022/08/07 04:05:07;;;;;;;;;;;21.70;88.40;;;;;;4839299;29;19956;-82
2022/08/07 04:07:34;;;;;;;;;;;21.60;88.20;;;;;;4835028;29;19936;-81
2022/08/07 04:10:08;;;;;;;;;;;21.60;88.10;;;;;;4848876;29;19929;-83
2022/08/07 04:12:45;;;;;;;;;;;21.60;88.80;;;;;;4841742;29;19929;-82
2022/08/07 04:15:13;;;;;;;;;;;21.60;88.20;;;;;;4857340;29;19929;-83
2022/08/07 04:17:41;;;;;;;;;;;21.50;88.30;;;;;;4870035;29;19932;-83
2022/08/07 04:20:28;;;;;;;;;;;21.50;88.50;;;;;;4845671;29;20354;-83
2022/08/07 04:22:57;;;;;;;;;;;21.50;88.70;;;;;;4839260;29;19932;-81
2022/08/07 04:25:32;;;;;;;;;;;21.50;89.70;;;;;;4847178;29;19932;-81
2022/08/07 04:28:07;;;;;;;;;;;21.50;88.50;;;;;;4854831;29;19957;-81
2022/08/07 04:30:34;;;;;;;;;;;21.50;88.30;;;;;;4843280;29;20462;-84
2022/08/07 04:33:22;;;;;;;;;;;21.50;88.20;;;;;;4848768;29;19928;-84
2022/08/07 04:35:52;;;;;;;;;;;21.50;88.10;;;;;;4840901;29;19929;-82
2022/08/07 04:38:20;;;;;;;;;;;21.50;88.20;;;;;;4847348;29;20378;-83
2022/08/07 04:40:47;;;;;;;;;;;21.40;88.20;;;;;;4850199;29;20374;-83
2022/08/07 04:43:43;;;;;;;;;;;21.40;88.40;;;;;;4833952;29;20420;-82
2022/08/07 04:46:36;;;;;;;;;;;21.40;88.30;;;;;;4833430;29;20028;-82
2022/08/07 04:49:32;;;;;;;;;;;21.40;88.20;;;;;;4833458;29;19980;-81
2022/08/07 04:52:20;;;;;;;;;;;21.40;88.20;;;;;;4840214;29;19928;-83
2022/08/07 04:55:10;;;;;;;;;;;21.40;88.20;;;;;;4820380;29;19929;-83
2022/08/07 04:58:01;;;;;;;;;;;21.40;88.40;;;;;;4836048;29;20488;-82
2022/08/07 05:01:13;;;;;;;;;;;21.40;88.70;;;;;;4832403;29;19932;-83
2022/08/07 05:03:50;;;;;;;;;;;21.40;88.70;;;;;;4836658;29;19932;-82
2022/08/07 05:06:48;;;;;;;;;;;21.40;89.50;;;;;;4850301;29;19932;-81
2022/08/07 05:09:28;;;;;;;;;;;21.40;89.70;;;;;;4864980;29;19958;-83
2022/08/07 05:12:15;;;;;;;;;;;21.30;89.90;;;;;;4848241;29;20389;-84
2022/08/07 05:14:56;;;;;;;;;;;21.30;90.10;;;;;;4856108;29;19938;-81
2022/08/07 05:17:31;;;;;;;;;;;21.20;90.10;;;;;;4849779;29;19936;-82
2022/08/07 05:20:23;;;;;;;;;;;21.30;90.20;;;;;;4856358;29;20337;-84
2022/08/07 05:22:53;;;;;;;;;;;21.30;90.10;;;;;;4848570;29;19932;-84
2022/08/07 05:25:21;;;;;;;;;;;21.30;90.10;;;;;;4850157;29;19928;-83
2022/08/07 05:28:04;;;;;;;;;;;21.30;90.30;;;;;;4849615;29;20397;-83
2022/08/07 05:30:48;;;;;;;;;;;21.30;90.70;;;;;;4849151;29;19937;-82
2022/08/07 05:33:18;;;;;;;;;;;21.20;91.40;;;;;;4853437;29;19932;-84
2022/08/07 05:35:48;;;;;;;;;;;21.10;91.70;;;;;;4843540;29;20032;-83
2022/08/07 05:38:15;;;;;;;;;;;21.10;91.40;;;;;;4850627;29;20309;-83
2022/08/07 05:41:02;;;;;;;;;;;21.10;91.30;;;;;;4847586;29;20420;-83
2022/08/07 05:43:42;;;;;;;;;;;21.10;91.20;;;;;;4859155;29;19928;-82
2022/08/07 05:46:29;;;;;;;;;;;21.20;91.10;;;;;;4828844;29;19968;-83
2022/08/07 05:48:56;;;;;;;;;;;21.20;91.40;;;;;;4835710;29;19972;-81
2022/08/07 05:51:26;;;;;;;;;;;21.20;91.10;;;;;;4846899;29;19979;-83
2022/08/07 05:53:59;;;;;;;;;;;21.20;91.00;;;;;;4854372;29;19988;-82
2022/08/07 05:56:49;;;;;;;;;;;21.30;91.00;;;;;;4843212;29;20020;-81
2022/08/07 05:59:18;;;;;;;;;;;21.30;90.90;;;;;;4860568;29;19939;-82
2022/08/07 06:01:48;;;;;;;;;;;21.30;90.80;;;;;;4839013;29;19929;-81
2022/08/07 06:04:15;;;;;;;;;;;21.30;90.90;;;;;;4825142;29;20002;-84
2022/08/07 06:06:43;;;;;;;;;;;21.30;90.70;;;;;;4849754;29;19956;-81
2022/08/07 06:09:16;;;;;;;;;;;21.30;91.00;;;;;;4856828;29;19940;-84
2022/08/07 06:11:44;;;;;;;;;;;21.30;91.10;;;;;;4831893;29;20466;-83
2022/08/07 06:14:12;;;;;;;;;;;21.30;90.90;;;;;;4838610;29;19971;-84
2022/08/07 06:16:54;;;;;;;;;;;21.30;90.80;;;;;;4843125;29;19932;-83
2022/08/07 06:19:23;;;;;;;;;;;21.40;91.00;;;;;;4845614;29;19928;-82
2022/08/07 06:22:10;;;;;;;;;;;21.40;90.90;;;;;;4850803;29;19933;-81
2022/08/07 06:24:49;;;;;;;;;;;21.40;90.90;;;;;;4841824;29;19957;-82
2022/08/07 06:27:24;;;;;;;;;;;21.40;91.00;;;;;;4852873;29;19962;-84
2022/08/07 06:30:11;;;;;;;;;;;21.50;91.10;;;;;;4842559;29;19980;-82
2022/08/07 06:32:58;;;;;;;;;;;21.50;92.10;;;;;;4859407;29;19960;-83
2022/08/07 06:35:24;;;;;;;;;;;21.60;92.20;;;;;;4835930;29;19984;-83
2022/08/07 06:38:11;;;;;;;;;;;21.70;92.10;;;;;;4849383;29;19928;-81
2022/08/07 06:40:48;;;;;;;;;;;21.70;91.10;;;;;;4829553;29;20314;-81
2022/08/07 06:43:17;;;;;;;;;;;21.80;90.50;;;;;;4825723;29;20313;-83
2022/08/07 06:45:48;;;;;;;;;;;21.90;89.00;;;;;;4851145;29;19928;-83
2022/08/07 06:48:15;;;;;;;;;;;22.00;87.10;;;;;;4842229;29;19929;-84
2022/08/07 06:50:52;;;;;;;;;;;22.10;85.10;;;;;;4843682;29;20030;-83
2022/08/07 06:53:21;;;;;;;;;;;22.10;84.50;;;;;;4839125;29;19936;-82
2022/08/07 06:56:09;;;;;;;;;;;22.30;86.80;;;;;;4830814;29;19972;-80
2022/08/07 06:58:41;;;;;;;;;;;22.40;88.40;;;;;;4846642;29;20012;-82
2022/08/07 07:01:30;;;;;;;;;;;22.40;88.90;;;;;;4835587;29;19928;-80
2022/08/07 07:04:09;;;;;;;;;;;22.50;89.40;;;;;;4847857;29;19928;-82
2022/08/07 07:06:57;;;;;;;;;;;22.50;89.10;;;;;;4841040;29;20019;-84
2022/08/07 07:09:28;;;;;;;;;;;22.60;88.10;;;;;;4837584;29;19988;-80
2022/08/07 07:11:57;;;;;;;;;;;22.70;87.60;;;;;;4840560;29;19970;-83
2022/08/07 07:14:48;;;;;;;;;;;22.70;86.40;;;;;;4850088;29;19933;-81
2022/08/07 07:17:28;;;;;;;;;;;22.90;84.90;;;;;;4855491;29;19936;-83
2022/08/07 07:20:08;;;;;;;;;;;23.10;84.60;;;;;;4833577;29;20394;-81
2022/08/07 07:22:35;;;;;;;;;;;23.30;83.40;;;;;;4748000;29;19933;-82
2022/08/07 07:25:22;;;;;;;;;;;23.40;83.60;;;;;;4831231;29;19937;-81
2022/08/07 07:28:13;;;;;;;;;;;23.70;79.00;;;;;;4835714;29;19961;-79
2022/08/07 07:31:02;;;;;;;;;;;23.80;79.20;;;;;;4838966;29;20023;-83
2022/08/07 07:33:31;;;;;;;;;;;24.00;77.80;;;;;;4835275;29;19986;-84
2022/08/07 07:35:59;;;;;;;;;;;24.30;78.20;;;;;;4836397;29;19983;-81
2022/08/07 07:38:38;;;;;;;;;;;24.50;77.00;;;;;;4857564;29;20406;-82
2022/08/07 07:41:08;;;;;;;;;;;24.70;74.60;;;;;;4839407;29;19932;-82
2022/08/07 07:43:38;;;;;;;;;;;24.90;74.30;;;;;;4848536;29;20598;-82
2022/08/07 07:46:25;;;;;;;;;;;25.10;72.90;;;;;;4842223;29;20436;-82
2022/08/07 07:49:14;;;;;;;;;;;25.30;70.50;;;;;;4839824;29;19936;-80
2022/08/07 07:52:01;;;;;;;;;;;25.40;69.50;;;;;;4839748;29;19977;-80
2022/08/07 07:54:29;;;;;;;;;;;25.60;68.40;;;;;;4840716;29;20027;-80
2022/08/07 07:56:59;;;;;;;;;;;25.70;68.40;;;;;;4846542;29;20308;-83
2022/08/07 07:59:28;;;;;;;;;;;25.90;67.40;;;;;;4847782;29;19954;-82
2022/08/07 08:02:16;;;;;;;;;;;26.00;66.70;;;;;;4838536;29;19961;-83
2022/08/07 08:05:02;;;;;;;;;;;26.20;66.80;;;;;;4844741;29;19935;-80
2022/08/07 08:07:30;;;;;;;;;;;26.40;67.00;;;;;;4842311;29;19943;-82
2022/08/07 08:10:08;;;;;;;;;;;26.50;66.50;;;;;;4852249;29;20027;-84
2022/08/07 08:12:40;;;;;;;;;;;26.70;65.30;;;;;;4851583;29;20394;-80
2022/08/07 08:15:27;;;;;;;;;;;26.80;64.10;;;;;;4844030;29;19940;-80
2022/08/07 08:18:14;;;;;;;;;;;27.00;63.80;;;;;;4841951;29;20019;-83
2022/08/07 08:20:45;;;;;;;;;;;27.10;63.30;;;;;;4839516;29;19937;-82
2022/08/07 08:27:03;;;;;;;;;;;27.30;60.00;;;;;;4841770;29;19929;-83
2022/08/07 08:28:54;;;;;;;;;;;27.40;58.30;;;;;;4832968;29;19932;-82
2022/08/07 08:31:29;;;;;;;;;;;27.40;57.60;;;;;;4858668;29;19932;-81
2022/08/07 08:34:18;;;;;;;;;;;27.50;57.30;;;;;;4858946;29;19933;-83
2022/08/07 08:36:57;;;;;;;;;;;27.50;58.20;;;;;;4849036;29;19933;-80
2022/08/07 08:39:26;;;;;;;;;;;27.60;56.60;;;;;;4850173;29;19932;-83
2022/08/07 08:42:18;;;;;;;;;;;27.80;58.30;;;;;;4843224;29;19967;-82
2022/08/07 08:44:51;;;;;;;;;;;27.90;57.00;;;;;;4846884;29;20019;-83
2022/08/07 08:47:21;;;;;;;;;;;28.00;57.90;;;;;;4848608;29;20389;-84
2022/08/07 08:50:12;;;;;;;;;;;28.10;57.30;;;;;;4852605;29;19928;-84
2022/08/07 08:53:03;;;;;;;;;;;28.20;57.70;;;;;;4846043;29;19933;-81
2022/08/07 08:55:35;;;;;;;;;;;28.40;57.10;;;;;;4848149;29;19929;-80
2022/08/07 08:58:22;;;;;;;;;;;28.50;55.90;;;;;;4845629;29;20019;-83
2022/08/07 09:00:59;;;;;;;;;;;28.60;55.10;;;;;;4855111;29;19928;-83
2022/08/07 09:03:31;;;;;;;;;;;28.70;54.40;;;;;;4846732;29;19935;-83
2022/08/07 09:06:36;;;;;;;;;;;28.80;53.60;;;;;;4855703;29;20324;-83
2022/08/07 09:09:11;;;;;;;;;;;28.80;52.10;;;;;;4841894;29;19929;-82
2022/08/07 09:11:54;;;;;;;;;;;28.90;50.60;;;;;;4842843;29;19929;-80
2022/08/07 09:14:43;;;;;;;;;;;29.00;51.00;;;;;;4848624;29;19983;-80
2022/08/07 09:17:36;;;;;;;;;;;29.10;50.50;;;;;;4847061;29;20419;-84
2022/08/07 09:20:31;;;;;;;;;;;29.20;49.10;;;;;;4859507;29;20015;-82
2022/08/07 09:23:08;;;;;;;;;;;29.30;47.00;;;;;;4847039;29;19928;-80
2022/08/07 09:26:00;;;;;;;;;;;29.30;48.40;;;;;;4852236;29;19981;-81
2022/08/07 09:28:28;;;;;;;;;;;29.40;49.40;;;;;;4841089;29;19967;-82
2022/08/07 09:31:31;;;;;;;;;;;29.50;48.80;;;;;;4841212;29;20015;-81
2022/08/07 09:34:24;;;;;;;;;;;29.70;47.70;;;;;;4856260;29;20312;-82
2022/08/07 09:36:55;;;;;;;;;;;29.80;45.50;;;;;;4840888;29;19929;-80
2022/08/07 09:39:38;;;;;;;;;;;29.70;46.20;;;;;;4855573;29;19928;-81
2022/08/07 09:42:39;;;;;;;;;;;29.70;47.40;;;;;;4843837;29;20290;-83
2022/08/07 09:45:11;;;;;;;;;;;29.80;47.20;;;;;;4842975;29;20305;-81
2022/08/07 09:47:57;;;;;;;;;;;29.90;48.40;;;;;;4854433;29;19971;-81
2022/08/07 09:51:02;;;;;;;;;;;30.00;48.70;;;;;;4841520;29;20334;-82
2022/08/07 09:53:43;;;;;;;;;;;30.20;48.10;;;;;;4835812;29;20019;-80
2022/08/07 09:56:21;;;;;;;;;;;30.30;47.90;;;;;;4843302;29;19981;-80
2022/08/07 09:59:09;;;;;;;;;;;30.40;47.50;;;;;;4848017;29;19936;-81
2022/08/07 10:01:40;;;;;;;;;;;30.30;45.80;;;;;;4841360;29;19928;-81
2022/08/07 10:04:22;;;;;;;;;;;30.00;47.90;;;;;;4852014;29;19932;-80
2022/08/07 10:07:17;;;;;;;;;;;30.10;48.80;;;;;;4847792;29;20479;-83
2022/08/07 10:10:00;;;;;;;;;;;30.30;48.90;;;;;;4870926;29;19938;-83
2022/08/07 10:12:47;;;;;;;;;;;30.50;48.50;;;;;;4857829;29;20047;-80
2022/08/07 10:15:34;;;;;;;;;;;30.70;47.40;;;;;;4868539;29;19932;-83
2022/08/07 10:18:21;;;;;;;;;;;30.80;47.40;;;;;;4871235;29;19936;-80
2022/08/07 10:20:53;;;;;;;;;;;30.80;47.10;;;;;;4856334;29;19928;-80
2022/08/07 10:23:30;;;;;;;;;;;30.80;44.90;;;;;;4851616;29;19961;-81
2022/08/07 10:26:23;;;;;;;;;;;30.80;46.00;;;;;;4857977;29;20015;-80
2022/08/07 10:29:05;;;;;;;;;;;30.60;45.70;;;;;;4855299;29;19928;-81
2022/08/07 10:31:45;;;;;;;;;;;30.60;46.80;;;;;;4859567;29;19928;-81
2022/08/07 10:34:36;;;;;;;;;;;30.70;47.00;;;;;;4848025;29;20022;-81
2022/08/07 10:37:05;;;;;;;;;;;30.70;45.90;;;;;;4856413;29;19972;-80
2022/08/07 10:39:45;;;;;;;;;;;30.80;46.90;;;;;;4859278;29;20369;-84
2022/08/07 10:42:40;;;;;;;;;;;31.00;46.30;;;;;;4864886;29;19935;-80
2022/08/07 10:45:22;;;;;;;;;;;31.00;44.50;;;;;;4845259;29;19931;-83
2022/08/07 10:48:09;;;;;;;;;;;30.80;44.90;;;;;;4862953;29;20426;-82
2022/08/07 10:50:49;;;;;;;;;;;30.80;46.70;;;;;;4858973;29;20381;-81
2022/08/07 10:53:23;;;;;;;;;;;30.80;45.50;;;;;;4850183;29;20917;-81
2022/08/07 10:55:59;;;;;;;;;;;30.80;46.90;;;;;;4857849;29;20389;-80
2022/08/07 10:58:31;;;;;;;;;;;30.80;46.20;;;;;;4857462;29;19974;-82
2022/08/07 11:01:24;;;;;;;;;;;30.80;45.60;;;;;;4846934;29;19932;-80
2022/08/07 11:04:10;;;;;;;;;;;30.60;44.90;;;;;;4860282;29;19932;-81
2022/08/07 11:06:57;;;;;;;;;;;30.30;45.80;;;;;;4848520;29;19937;-82
2022/08/07 11:09:27;;;;;;;;;;;30.20;46.40;;;;;;4857142;29;19967;-82
2022/08/07 11:12:17;;;;;;;;;;;30.30;47.40;;;;;;4857613;29;19939;-80
2022/08/07 11:14:59;;;;;;;;;;;30.60;46.60;;;;;;4856275;29;19928;-83
2022/08/07 11:17:31;;;;;;;;;;;31.00;45.50;;;;;;4861700;29;19980;-80
2022/08/07 11:20:37;;;;;;;;;;;31.20;46.00;;;;;;4848103;29;20269;-80
2022/08/07 11:23:24;;;;;;;;;;;31.50;44.70;;;;;;4850408;29;19949;-81
2022/08/07 11:26:21;;;;;;;;;;;31.60;43.90;;;;;;4854159;29;19932;-83
2022/08/07 11:29:01;;;;;;;;;;;31.60;43.00;;;;;;4856851;29;19939;-82
2022/08/07 11:31:57;;;;;;;;;;;31.40;43.90;;;;;;4849922;29;19939;-81
2022/08/07 11:34:36;;;;;;;;;;;31.40;45.60;;;;;;4867754;29;19928;-81
2022/08/07 11:37:11;;;;;;;;;;;31.60;45.00;;;;;;4847892;29;19929;-83
2022/08/07 11:39:49;;;;;;;;;;;31.80;45.30;;;;;;4853024;29;20382;-82
2022/08/07 11:42:45;;;;;;;;;;;32.00;43.90;;;;;;4857310;29;20040;-82
2022/08/07 11:45:31;;;;;;;;;;;32.00;42.00;;;;;;4858185;29;19929;-83
2022/08/07 11:48:04;;;;;;;;;;;32.10;42.90;;;;;;4852112;29;19980;-80
2022/08/07 11:51:12;;;;;;;;;;;32.30;42.90;;;;;;4861838;29;20411;-80
2022/08/07 11:53:59;;;;;;;;;;;32.50;41.40;;;;;;4853089;29;19954;-80
2022/08/07 11:56:35;;;;;;;;;;;32.30;42.00;;;;;;4858250;29;19938;-81
2022/08/07 11:59:02;;;;;;;;;;;32.30;42.80;;;;;;4853308;29;20428;-80
2022/08/07 12:02:06;;;;;;;;;;;32.30;44.10;;;;;;4857973;29;20363;-80
2022/08/07 12:05:01;;;;;;;;;;;32.60;43.00;;;;;;4850284;29;20296;-81
2022/08/07 12:07:43;;;;;;;;;;;32.60;41.80;;;;;;4852886;29;19928;-81
2022/08/07 12:10:25;;;;;;;;;;;32.60;42.00;;;;;;4861992;29;20337;-80
2022/08/07 12:13:01;;;;;;;;;;;32.50;42.40;;;;;;4875164;29;19929;-81
2022/08/07 12:15:51;;;;;;;;;;;32.40;42.50;;;;;;4860719;29;19934;-80
2022/08/07 12:18:40;;;;;;;;;;;32.40;42.70;;;;;;4871071;29;19984;-81
2022/08/07 12:21:11;;;;;;;;;;;32.40;42.90;;;;;;4853391;29;20062;-81
2022/08/07 12:23:44;;;;;;;;;;;32.50;41.80;;;;;;4837225;29;19935;-81
2022/08/07 12:26:41;;;;;;;;;;;32.30;42.10;;;;;;4843808;29;20023;-79
2022/08/07 12:29:32;;;;;;;;;;;32.10;42.30;;;;;;4854821;29;19996;-83
2022/08/07 12:32:14;;;;;;;;;;;31.90;43.40;;;;;;4843202;29;19928;-81
2022/08/07 12:34:43;;;;;;;;;;;31.70;42.80;;;;;;4857634;29;19933;-83
2022/08/07 12:37:20;;;;;;;;;;;31.60;43.10;;;;;;4843853;29;19933;-83
2022/08/07 12:39:56;;;;;;;;;;;31.60;43.70;;;;;;4840355;29;19932;-81
2022/08/07 12:42:25;;;;;;;;;;;31.80;44.10;;;;;;4839677;29;19958;-81
2022/08/07 12:45:01;;;;;;;;;;;32.10;43.40;;;;;;4842469;29;19961;-83
2022/08/07 12:47:34;;;;;;;;;;;32.30;42.50;;;;;;4841286;29;19935;-81
2022/08/07 12:50:09;;;;;;;;;;;32.20;42.00;;;;;;4840914;29;19940;-83
2022/08/07 12:52:59;;;;;;;;;;;32.10;42.20;;;;;;4846184;29;20445;-82
2022/08/07 12:55:30;;;;;;;;;;;31.90;42.40;;;;;;4846219;29;19996;-80
2022/08/07 12:58:09;;;;;;;;;;;31.80;43.60;;;;;;4863485;29;19928;-83
2022/08/07 13:00:58;;;;;;;;;;;31.80;42.70;;;;;;4840245;29;19937;-80
2022/08/07 13:03:49;;;;;;;;;;;32.00;42.70;;;;;;4857804;29;20019;-80
2022/08/07 13:06:36;;;;;;;;;;;31.90;41.00;;;;;;4846207;29;20005;-82
2022/08/07 13:09:40;;;;;;;;;;;31.90;41.80;;;;;;4844517;29;20031;-80
2022/08/07 13:12:39;;;;;;;;;;;32.10;42.70;;;;;;4860393;29;19932;-80
2022/08/07 13:15:12;;;;;;;;;;;32.10;41.10;;;;;;4851603;29;20472;-81
2022/08/07 13:18:09;;;;;;;;;;;32.00;41.30;;;;;;4859801;29;19932;-81
2022/08/07 13:20:57;;;;;;;;;;;31.90;42.80;;;;;;4854723;29;19981;-82
2022/08/07 13:23:32;;;;;;;;;;;31.90;43.40;;;;;;4851885;29;19932;-81
2022/08/07 13:26:51;;;;;;;;;;;31.70;42.60;;;;;;4855936;29;20029;-82
2022/08/07 13:29:47;;;;;;;;;;;31.60;42.80;;;;;;4827694;29;19937;-81
2022/08/07 13:32:38;;;;;;;;;;;31.40;42.00;;;;;;4846352;29;19943;-83
2022/08/07 13:35:13;;;;;;;;;;;31.20;42.80;;;;;;4851865;29;19928;-81
2022/08/07 13:37:55;;;;;;;;;;;31.00;43.10;;;;;;4840963;29;19935;-83
2022/08/07 13:40:34;;;;;;;;;;;30.80;44.40;;;;;;4843666;29;20330;-83
2022/08/07 13:43:14;;;;;;;;;;;30.80;46.00;;;;;;4843273;29;19932;-83
2022/08/07 13:45:45;;;;;;;;;;;30.70;45.80;;;;;;4850097;29;19935;-81
2022/08/07 13:48:33;;;;;;;;;;;30.60;45.80;;;;;;4844738;29;20376;-83
2022/08/07 13:51:05;;;;;;;;;;;30.60;46.10;;;;;;4839265;29;20000;-80
2022/08/07 13:53:52;;;;;;;;;;;30.50;45.60;;;;;;4842115;29;20401;-82
2022/08/07 13:56:27;;;;;;;;;;;30.40;46.70;;;;;;4840853;29;19961;-81
2022/08/07 13:59:09;;;;;;;;;;;30.30;48.80;;;;;;4851597;29;20407;-80
2022/08/07 14:01:52;;;;;;;;;;;30.10;48.60;;;;;;4858623;29;19928;-80
2022/08/07 14:04:31;;;;;;;;;;;30.00;50.10;;;;;;4859542;29;19939;-83
2022/08/07 14:07:05;;;;;;;;;;;29.90;50.50;;;;;;4852407;29;19972;-83
2022/08/07 14:09:39;;;;;;;;;;;29.70;50.90;;;;;;4853673;29;19972;-83
2022/08/07 14:12:31;;;;;;;;;;;29.50;51.50;;;;;;4834768;29;19956;-83
2022/08/07 14:15:09;;;;;;;;;;;29.50;52.50;;;;;;4863527;29;19934;-81
2022/08/07 14:17:39;;;;;;;;;;;29.30;52.50;;;;;;4855828;29;19932;-84
2022/08/07 14:20:27;;;;;;;;;;;29.20;52.80;;;;;;4855737;29;20041;-83
2022/08/07 14:23:39;;;;;;;;;;;29.10;52.90;;;;;;4855040;29;20338;-83
2022/08/07 14:26:38;;;;;;;;;;;29.10;53.30;;;;;;4868451;29;19971;-82
2022/08/07 14:29:08;;;;;;;;;;;29.10;53.60;;;;;;4855965;29;19939;-83
2022/08/07 14:31:57;;;;;;;;;;;29.10;53.70;;;;;;4854976;29;20333;-83
2022/08/07 14:34:25;;;;;;;;;;;29.10;53.70;;;;;;4860761;29;19928;-81
2022/08/07 14:36:55;;;;;;;;;;;29.10;53.90;;;;;;4843318;29;19960;-83
2022/08/07 14:39:23;;;;;;;;;;;29.10;54.90;;;;;;4855714;29;19950;-81
2022/08/07 14:42:10;;;;;;;;;;;29.00;55.50;;;;;;4864236;29;20392;-84
2022/08/07 14:44:50;;;;;;;;;;;28.90;55.50;;;;;;4847598;29;20014;-83
2022/08/07 14:47:18;;;;;;;;;;;28.70;55.80;;;;;;4865605;29;19932;-83
2022/08/07 14:49:46;;;;;;;;;;;28.60;56.20;;;;;;4851272;29;19929;-81
2022/08/07 14:52:25;;;;;;;;;;;28.50;56.40;;;;;;4849772;29;20380;-81
2022/08/07 14:54:55;;;;;;;;;;;28.50;56.60;;;;;;4859121;29;19928;-81
2022/08/07 14:57:25;;;;;;;;;;;28.30;57.40;;;;;;4852795;29;19932;-83
2022/08/07 15:00:12;;;;;;;;;;;28.20;57.40;;;;;;4839119;29;19929;-83
2022/08/07 15:03:02;;;;;;;;;;;28.20;58.40;;;;;;4842978;29;19932;-81
2022/08/07 15:05:47;;;;;;;;;;;28.10;58.90;;;;;;4835026;29;20310;-83
2022/08/07 15:08:22;;;;;;;;;;;28.00;59.20;;;;;;4854391;29;19928;-81
2022/08/07 15:11:08;;;;;;;;;;;27.90;59.60;;;;;;4839160;29;19952;-81
2022/08/07 15:13:47;;;;;;;;;;;27.80;59.30;;;;;;4847958;29;21023;-83
2022/08/07 15:16:15;;;;;;;;;;;27.80;59.20;;;;;;4850034;29;19932;-82
2022/08/07 15:19:00;;;;;;;;;;;27.80;59.30;;;;;;4858545;29;20333;-83
2022/08/07 15:21:29;;;;;;;;;;;27.70;58.90;;;;;;4863215;29;20373;-82
2022/08/07 15:24:19;;;;;;;;;;;27.70;58.90;;;;;;4847427;29;20016;-81
2022/08/07 15:27:18;;;;;;;;;;;27.70;58.40;;;;;;4847461;29;20015;-81